Siddonsburg, Pennsylvania
Current Conditions -  °F | °C
As of 8:56 AM on Thursday 30 Oct 2014 (Local Time) from KCXY Reporting Station
Clear Clear  
Wind Chill: 47°   Ceiling: Unl
Heat Index: 47°   Visibility: 10mi
Dew Point: 39°   Wind: 3mph
Humidity: 74%   Direction: 290°WNW
Pressure: 30.06"   Gusts: NA
Location:  40.0904°N, 77.0293°W
Report Text: KCXY 301256Z 29003KT 10SM CLR 08/04 A3006 RMK AO2 SLP180 T00830039
Loading
Personal Weather Stations






























Interactive Weather Map
Tropical Storm Tracking
New forecast layout! Learn more

10-Day Weather Forecast

Advertisements
Track Severe Weather on mobile